Shaftsbury, Vermont
Current Conditions -  °F | °C
As of 11:54 AM on Thursday 30 Oct 2014 (Local Time) from KDDH Reporting Station
Broken Clouds Broken Clouds  
Wind Chill: 45°   Ceiling: 5000
Heat Index: 49°   Visibility: 10mi
Dew Point: 38°   Wind: 8mph
Humidity: 66%   Direction: 260°W
Pressure: 29.96"   Gusts: NA
Location:  43.01°N, 73.19°W
Report Text: KDDH 301554Z AUTO 26007KT 10SM FEW028 FEW034 BKN050 09/03 A2996 RMK AO2 SLP148 T00940033
Loading
Personal Weather Stations






























Interactive Weather Map New forecast layout! Learn more

10-Day Weather Forecast

Advertisements
Track Severe Weather on mobile